sensor_id;sensor_type;location;lat;lon;timestamp;temperature;humidity
9984;DHT22;16737;50.932;6.780;2023-08-30T00:01:29;18.90;93.40
9984;DHT22;16737;50.932;6.780;2023-08-30T00:03:58;18.90;93.40
9984;DHT22;16737;50.932;6.780;2023-08-30T00:06:25;18.90;93.50
9984;DHT22;16737;50.932;6.780;2023-08-30T00:08:52;18.80;93.40
9984;DHT22;16737;50.932;6.780;2023-08-30T00:11:19;18.80;93.40
9984;DHT22;16737;50.932;6.780;2023-08-30T00:13:48;18.90;93.50
9984;DHT22;16737;50.932;6.780;2023-08-30T00:16:15;18.90;93.50
9984;DHT22;16737;50.932;6.780;2023-08-30T00:18:42;18.90;93.50
9984;DHT22;16737;50.932;6.780;2023-08-30T00:21:11;18.90;93.50
9984;DHT22;16737;50.932;6.780;2023-08-30T00:23:38;18.90;93.50
9984;DHT22;16737;50.932;6.780;2023-08-30T00:26:05;19.00;93.50
9984;DHT22;16737;50.932;6.780;2023-08-30T00:28:32;18.90;93.50
9984;DHT22;16737;50.932;6.780;2023-08-30T00:30:59;19.00;93.50
9984;DHT22;16737;50.932;6.780;2023-08-30T00:33:26;19.00;93.50
9984;DHT22;16737;50.932;6.780;2023-08-30T00:35:56;19.00;93.50
9984;DHT22;16737;50.932;6.780;2023-08-30T00:38:26;19.00;93.60
9984;DHT22;16737;50.932;6.780;2023-08-30T00:40:54;19.00;93.60
9984;DHT22;16737;50.932;6.780;2023-08-30T00:43:21;19.00;93.50
9984;DHT22;16737;50.932;6.780;2023-08-30T00:45:49;19.00;93.50
9984;DHT22;16737;50.932;6.780;2023-08-30T00:48:18;19.00;93.50
9984;DHT22;16737;50.932;6.780;2023-08-30T00:50:46;19.10;93.60
9984;DHT22;16737;50.932;6.780;2023-08-30T00:53:13;19.10;93.60
9984;DHT22;16737;50.932;6.780;2023-08-30T00:55:42;19.00;93.60
9984;DHT22;16737;50.932;6.780;2023-08-30T00:58:10;19.10;93.70
9984;DHT22;16737;50.932;6.780;2023-08-30T01:00:39;19.10;93.80
9984;DHT22;16737;50.932;6.780;2023-08-30T01:03:07;19.10;93.70
9984;DHT22;16737;50.932;6.780;2023-08-30T01:05:34;19.10;93.70
9984;DHT22;16737;50.932;6.780;2023-08-30T01:08:02;19.10;93.70
9984;DHT22;16737;50.932;6.780;2023-08-30T01:10:38;19.10;93.70
9984;DHT22;16737;50.932;6.780;2023-08-30T01:13:18;19.10;93.80
9984;DHT22;16737;50.932;6.780;2023-08-30T01:15:47;19.10;93.70
9984;DHT22;16737;50.932;6.780;2023-08-30T01:18:18;19.10;93.60
9984;DHT22;16737;50.932;6.780;2023-08-30T01:20:47;19.00;93.60
9984;DHT22;16737;50.932;6.780;2023-08-30T01:23:24;19.00;93.50
9984;DHT22;16737;50.932;6.780;2023-08-30T01:26:09;19.10;93.70
9984;DHT22;16737;50.932;6.780;2023-08-30T01:28:40;19.00;93.60
9984;DHT22;16737;50.932;6.780;2023-08-30T01:31:08;19.00;93.50
9984;DHT22;16737;50.932;6.780;2023-08-30T01:33:38;18.90;93.50
9984;DHT22;16737;50.932;6.780;2023-08-30T01:36:06;18.90;93.40
9984;DHT22;16737;50.932;6.780;2023-08-30T01:38:34;18.90;93.50
9984;DHT22;16737;50.932;6.780;2023-08-30T01:41:02;18.90;93.50
9984;DHT22;16737;50.932;6.780;2023-08-30T01:43:31;18.80;93.50
9984;DHT22;16737;50.932;6.780;2023-08-30T01:46:01;18.80;93.80
9984;DHT22;16737;50.932;6.780;2023-08-30T01:48:31;18.70;93.60
9984;DHT22;16737;50.932;6.780;2023-08-30T01:51:00;18.70;93.50
9984;DHT22;16737;50.932;6.780;2023-08-30T01:53:28;18.70;93.60
9984;DHT22;16737;50.932;6.780;2023-08-30T01:55:55;18.60;93.50
9984;DHT22;16737;50.932;6.780;2023-08-30T01:58:22;18.70;93.60
9984;DHT22;16737;50.932;6.780;2023-08-30T02:00:49;18.60;93.60
9984;DHT22;16737;50.932;6.780;2023-08-30T02:03:18;18.60;93.60
9984;DHT22;16737;50.932;6.780;2023-08-30T02:05:54;18.60;93.70
9984;DHT22;16737;50.932;6.780;2023-08-30T02:08:35;18.60;93.80
9984;DHT22;16737;50.932;6.780;2023-08-30T02:11:11;18.50;93.70
9984;DHT22;16737;50.932;6.780;2023-08-30T02:13:42;18.50;93.70
9984;DHT22;16737;50.932;6.780;2023-08-30T02:16:13;18.50;93.70
9984;DHT22;16737;50.932;6.780;2023-08-30T02:18:42;18.50;93.70
9984;DHT22;16737;50.932;6.780;2023-08-30T02:21:10;18.50;93.80
9984;DHT22;16737;50.932;6.780;2023-08-30T02:23:37;18.40;93.70
9984;DHT22;16737;50.932;6.780;2023-08-30T02:26:04;18.40;93.80
9984;DHT22;16737;50.932;6.780;2023-08-30T02:28:31;18.40;93.80
9984;DHT22;16737;50.932;6.780;2023-08-30T02:30:58;18.40;93.80
9984;DHT22;16737;50.932;6.780;2023-08-30T02:33:25;18.30;93.80
9984;DHT22;16737;50.932;6.780;2023-08-30T02:35:54;18.30;93.80
9984;DHT22;16737;50.932;6.780;2023-08-30T02:38:21;18.30;93.90
9984;DHT22;16737;50.932;6.780;2023-08-30T02:40:48;18.30;93.90
9984;DHT22;16737;50.932;6.780;2023-08-30T02:43:15;18.30;93.90
9984;DHT22;16737;50.932;6.780;2023-08-30T02:45:43;18.20;93.90
9984;DHT22;16737;50.932;6.780;2023-08-30T02:48:10;18.30;94.00
9984;DHT22;16737;50.932;6.780;2023-08-30T02:50:37;18.30;94.10
9984;DHT22;16737;50.932;6.780;2023-08-30T02:53:05;18.30;94.00
9984;DHT22;16737;50.932;6.780;2023-08-30T02:55:33;18.20;94.40
9984;DHT22;16737;50.932;6.780;2023-08-30T02:58:01;18.20;94.10
9984;DHT22;16737;50.932;6.780;2023-08-30T03:00:28;18.20;94.10
9984;DHT22;16737;50.932;6.780;2023-08-30T03:02:55;18.20;94.10
9984;DHT22;16737;50.932;6.780;2023-08-30T03:05:22;18.20;94.10
9984;DHT22;16737;50.932;6.780;2023-08-30T03:07:49;18.10;94.10
9984;DHT22;16737;50.932;6.780;2023-08-30T03:10:18;18.10;94.10
9984;DHT22;16737;50.932;6.780;2023-08-30T03:12:45;18.10;94.30
9984;DHT22;16737;50.932;6.780;2023-08-30T03:15:12;18.10;94.20
9984;DHT22;16737;50.932;6.780;2023-08-30T03:17:39;18.10;94.30
9984;DHT22;16737;50.932;6.780;2023-08-30T03:20:07;18.10;94.30
9984;DHT22;16737;50.932;6.780;2023-08-30T03:22:34;18.00;94.30
9984;DHT22;16737;50.932;6.780;2023-08-30T03:25:01;18.00;94.30
9984;DHT22;16737;50.932;6.780;2023-08-30T03:27:30;18.00;94.30
9984;DHT22;16737;50.932;6.780;2023-08-30T03:29:59;18.00;94.40
9984;DHT22;16737;50.932;6.780;2023-08-30T03:32:26;18.00;94.40
9984;DHT22;16737;50.932;6.780;2023-08-30T03:34:53;18.00;94.30
9984;DHT22;16737;50.932;6.780;2023-08-30T03:37:20;18.00;94.40
9984;DHT22;16737;50.932;6.780;2023-08-30T03:39:47;18.00;94.40
9984;DHT22;16737;50.932;6.780;2023-08-30T03:42:14;17.90;94.30
9984;DHT22;16737;50.932;6.780;2023-08-30T03:44:43;17.90;94.30
9984;DHT22;16737;50.932;6.780;2023-08-30T03:47:11;17.90;94.30
9984;DHT22;16737;50.932;6.780;2023-08-30T03:49:38;17.90;94.30
9984;DHT22;16737;50.932;6.780;2023-08-30T03:52:05;17.90;94.30
9984;DHT22;16737;50.932;6.780;2023-08-30T03:54:32;17.80;94.30
9984;DHT22;16737;50.932;6.780;2023-08-30T03:56:59;17.80;94.30
9984;DHT22;16737;50.932;6.780;2023-08-30T03:59:28;17.80;94.30
9984;DHT22;16737;50.932;6.780;2023-08-30T04:01:57;17.80;94.30
9984;DHT22;16737;50.932;6.780;2023-08-30T04:04:24;17.80;94.40
9984;DHT22;16737;50.932;6.780;2023-08-30T04:06:51;17.70;94.30
9984;DHT22;16737;50.932;6.780;2023-08-30T04:09:18;17.80;94.30
9984;DHT22;16737;50.932;6.780;2023-08-30T04:11:46;17.70;94.30
9984;DHT22;16737;50.932;6.780;2023-08-30T04:14:13;17.70;94.30
9984;DHT22;16737;50.932;6.780;2023-08-30T04:16:40;17.70;94.30
9984;DHT22;16737;50.932;6.780;2023-08-30T04:19:09;17.70;94.30
9984;DHT22;16737;50.932;6.780;2023-08-30T04:21:36;17.60;94.30
9984;DHT22;16737;50.932;6.780;2023-08-30T04:24:04;17.70;94.30
9984;DHT22;16737;50.932;6.780;2023-08-30T04:26:32;17.60;94.30
9984;DHT22;16737;50.932;6.780;2023-08-30T04:28:59;17.60;94.20
9984;DHT22;16737;50.932;6.780;2023-08-30T04:31:29;17.60;94.20
9984;DHT22;16737;50.932;6.780;2023-08-30T04:33:56;17.60;94.20
9984;DHT22;16737;50.932;6.780;2023-08-30T04:36:24;17.50;94.20
9984;DHT22;16737;50.932;6.780;2023-08-30T04:38:51;17.50;94.30
9984;DHT22;16737;50.932;6.780;2023-08-30T04:41:19;17.50;94.30
9984;DHT22;16737;50.932;6.780;2023-08-30T04:43:46;17.50;94.30
9984;DHT22;16737;50.932;6.780;2023-08-30T04:46:13;17.50;94.30
9984;DHT22;16737;50.932;6.780;2023-08-30T04:48:40;17.40;94.30
9984;DHT22;16737;50.932;6.780;2023-08-30T04:51:07;17.40;94.30
9984;DHT22;16737;50.932;6.780;2023-08-30T04:53:36;17.40;94.30
9984;DHT22;16737;50.932;6.780;2023-08-30T04:56:11;17.40;94.40
9984;DHT22;16737;50.932;6.780;2023-08-30T04:58:41;17.40;94.60
9984;DHT22;16737;50.932;6.780;2023-08-30T05:01:11;17.40;94.30
9984;DHT22;16737;50.932;6.780;2023-08-30T05:03:42;17.30;94.40
9984;DHT22;16737;50.932;6.780;2023-08-30T05:06:09;17.40;94.30
9984;DHT22;16737;50.932;6.780;2023-08-30T05:08:41;17.30;94.30
9984;DHT22;16737;50.932;6.780;2023-08-30T05:11:09;17.40;94.40
9984;DHT22;16737;50.932;6.780;2023-08-30T05:13:38;17.20;94.30
9984;DHT22;16737;50.932;6.780;2023-08-30T05:16:10;17.20;94.30
9984;DHT22;16737;50.932;6.780;2023-08-30T05:18:40;17.20;94.70
9984;DHT22;16737;50.932;6.780;2023-08-30T05:21:07;17.10;94.20
9984;DHT22;16737;50.932;6.780;2023-08-30T05:23:36;17.10;94.30
9984;DHT22;16737;50.932;6.780;2023-08-30T05:26:16;17.10;94.30
9984;DHT22;16737;50.932;6.780;2023-08-30T05:28:45;17.10;94.30
9984;DHT22;16737;50.932;6.780;2023-08-30T05:31:17;17.10;94.30
9984;DHT22;16737;50.932;6.780;2023-08-30T05:33:44;17.00;94.40
9984;DHT22;16737;50.932;6.780;2023-08-30T05:36:12;17.00;94.30
9984;DHT22;16737;50.932;6.780;2023-08-30T05:38:41;17.00;94.40
9984;DHT22;16737;50.932;6.780;2023-08-30T05:41:11;17.00;94.40
9984;DHT22;16737;50.932;6.780;2023-08-30T05:43:41;16.90;94.40
9984;DHT22;16737;50.932;6.780;2023-08-30T05:46:09;16.90;94.40
9984;DHT22;16737;50.932;6.780;2023-08-30T05:48:40;16.90;94.40
9984;DHT22;16737;50.932;6.780;2023-08-30T05:51:07;16.90;94.40
9984;DHT22;16737;50.932;6.780;2023-08-30T05:53:41;17.00;94.50
9984;DHT22;16737;50.932;6.780;2023-08-30T05:56:23;17.00;94.60
9984;DHT22;16737;50.932;6.780;2023-08-30T05:58:50;16.90;94.50
9984;DHT22;16737;50.932;6.780;2023-08-30T06:01:22;16.90;94.60
9984;DHT22;16737;50.932;6.780;2023-08-30T06:03:53;17.00;94.70
9984;DHT22;16737;50.932;6.780;2023-08-30T06:06:26;16.90;94.70
9984;DHT22;16737;50.932;6.780;2023-08-30T06:09:11;17.00;95.20
9984;DHT22;16737;50.932;6.780;2023-08-30T06:11:52;16.90;94.90
9984;DHT22;16737;50.932;6.780;2023-08-30T06:14:20;16.90;94.80
9984;DHT22;16737;50.932;6.780;2023-08-30T06:16:48;16.90;94.70
9984;DHT22;16737;50.932;6.780;2023-08-30T06:19:20;17.00;94.80
9984;DHT22;16737;50.932;6.780;2023-08-30T06:21:48;17.00;94.80
9984;DHT22;16737;50.932;6.780;2023-08-30T06:24:19;17.00;94.80
9984;DHT22;16737;50.932;6.780;2023-08-30T06:26:49;17.00;94.90
9984;DHT22;16737;50.932;6.780;2023-08-30T06:29:17;17.00;94.80
9984;DHT22;16737;50.932;6.780;2023-08-30T06:31:47;17.00;94.80
9984;DHT22;16737;50.932;6.780;2023-08-30T06:34:19;17.10;94.90
9984;DHT22;16737;50.932;6.780;2023-08-30T06:36:48;17.10;94.90
9984;DHT22;16737;50.932;6.780;2023-08-30T06:39:32;17.10;94.90
9984;DHT22;16737;50.932;6.780;2023-08-30T06:42:00;17.10;95.00
9984;DHT22;16737;50.932;6.780;2023-08-30T06:44:28;17.20;95.00
9984;DHT22;16737;50.932;6.780;2023-08-30T06:46:56;17.20;95.10
9984;DHT22;16737;50.932;6.780;2023-08-30T06:49:24;17.20;95.20
9984;DHT22;16737;50.932;6.780;2023-08-30T06:51:51;17.30;95.20
9984;DHT22;16737;50.932;6.780;2023-08-30T06:54:19;17.40;95.40
9984;DHT22;16737;50.932;6.780;2023-08-30T06:57:02;17.40;95.40
9984;DHT22;16737;50.932;6.780;2023-08-30T06:59:32;17.40;95.50
9984;DHT22;16737;50.932;6.780;2023-08-30T07:01:59;17.50;95.30
9984;DHT22;16737;50.932;6.780;2023-08-30T07:04:27;17.50;95.20
9984;DHT22;16737;50.932;6.780;2023-08-30T07:06:55;17.60;95.30
9984;DHT22;16737;50.932;6.780;2023-08-30T07:09:22;17.70;95.20
9984;DHT22;16737;50.932;6.780;2023-08-30T07:11:54;17.70;95.20
9984;DHT22;16737;50.932;6.780;2023-08-30T07:14:23;17.80;95.30
9984;DHT22;16737;50.932;6.780;2023-08-30T07:16:50;17.80;95.30
9984;DHT22;16737;50.932;6.780;2023-08-30T07:19:17;17.90;95.30
9984;DHT22;16737;50.932;6.780;2023-08-30T07:21:45;17.90;95.30
9984;DHT22;16737;50.932;6.780;2023-08-30T07:24:12;17.90;95.30
9984;DHT22;16737;50.932;6.780;2023-08-30T07:26:39;18.00;95.40
9984;DHT22;16737;50.932;6.780;2023-08-30T07:29:06;18.10;95.30
9984;DHT22;16737;50.932;6.780;2023-08-30T07:31:35;18.00;95.30
9984;DHT22;16737;50.932;6.780;2023-08-30T07:34:02;18.10;95.40
9984;DHT22;16737;50.932;6.780;2023-08-30T07:36:29;18.20;95.30
9984;DHT22;16737;50.932;6.780;2023-08-30T07:38:58;18.20;95.30
9984;DHT22;16737;50.932;6.780;2023-08-30T07:41:25;18.30;95.40
9984;DHT22;16737;50.932;6.780;2023-08-30T07:43:52;18.30;95.40
9984;DHT22;16737;50.932;6.780;2023-08-30T07:46:19;18.40;95.50
9984;DHT22;16737;50.932;6.780;2023-08-30T07:48:48;18.50;95.60
9984;DHT22;16737;50.932;6.780;2023-08-30T07:51:15;18.60;95.80
9984;DHT22;16737;50.932;6.780;2023-08-30T07:53:42;18.70;95.80
9984;DHT22;16737;50.932;6.780;2023-08-30T07:56:09;18.80;95.70
9984;DHT22;16737;50.932;6.780;2023-08-30T07:58:36;18.80;95.60
9984;DHT22;16737;50.932;6.780;2023-08-30T08:01:03;19.00;95.60
9984;DHT22;16737;50.932;6.780;2023-08-30T08:03:30;19.00;95.50
9984;DHT22;16737;50.932;6.780;2023-08-30T08:05:59;19.10;95.60
9984;DHT22;16737;50.932;6.780;2023-08-30T08:08:26;19.20;95.50
9984;DHT22;16737;50.932;6.780;2023-08-30T08:10:53;19.20;95.60
9984;DHT22;16737;50.932;6.780;2023-08-30T08:13:20;19.30;95.70
9984;DHT22;16737;50.932;6.780;2023-08-30T08:15:47;19.40;95.80
9984;DHT22;16737;50.932;6.780;2023-08-30T08:18:14;19.50;95.80
9984;DHT22;16737;50.932;6.780;2023-08-30T08:20:42;19.60;95.80
9984;DHT22;16737;50.932;6.780;2023-08-30T08:23:10;19.70;95.80
9984;DHT22;16737;50.932;6.780;2023-08-30T08:25:38;19.80;95.80
9984;DHT22;16737;50.932;6.780;2023-08-30T08:28:05;19.80;95.60
9984;DHT22;16737;50.932;6.780;2023-08-30T08:30:32;19.90;95.40
9984;DHT22;16737;50.932;6.780;2023-08-30T08:32:59;20.00;95.30
9984;DHT22;16737;50.932;6.780;2023-08-30T08:35:26;20.10;95.10
9984;DHT22;16737;50.932;6.780;2023-08-30T08:37:53;20.10;95.10
9984;DHT22;16737;50.932;6.780;2023-08-30T08:40:22;20.20;95.00
9984;DHT22;16737;50.932;6.780;2023-08-30T08:42:49;20.30;95.10
9984;DHT22;16737;50.932;6.780;2023-08-30T08:45:17;20.40;95.10
9984;DHT22;16737;50.932;6.780;2023-08-30T08:47:46;20.50;95.00
9984;DHT22;16737;50.932;6.780;2023-08-30T08:50:14;20.60;94.90
9984;DHT22;16737;50.932;6.780;2023-08-30T08:52:41;20.70;94.90
9984;DHT22;16737;50.932;6.780;2023-08-30T08:55:09;20.80;94.80
9984;DHT22;16737;50.932;6.780;2023-08-30T08:57:38;20.90;94.60
9984;DHT22;16737;50.932;6.780;2023-08-30T09:00:07;21.00;94.50
9984;DHT22;16737;50.932;6.780;2023-08-30T09:02:35;21.10;94.30
9984;DHT22;16737;50.932;6.780;2023-08-30T09:05:02;21.20;94.20
9984;DHT22;16737;50.932;6.780;2023-08-30T09:07:31;21.20;94.10
9984;DHT22;16737;50.932;6.780;2023-08-30T09:09:59;21.30;94.00
9984;DHT22;16737;50.932;6.780;2023-08-30T09:12:27;21.30;93.90
9984;DHT22;16737;50.932;6.780;2023-08-30T09:14:56;21.30;93.70
9984;DHT22;16737;50.932;6.780;2023-08-30T09:17:23;21.30;93.60
9984;DHT22;16737;50.932;6.780;2023-08-30T09:20:06;21.30;93.70
9984;DHT22;16737;50.932;6.780;2023-08-30T09:22:38;21.30;93.70
9984;DHT22;16737;50.932;6.780;2023-08-30T09:25:07;21.30;93.70
9984;DHT22;16737;50.932;6.780;2023-08-30T09:27:36;21.30;93.80
9984;DHT22;16737;50.932;6.780;2023-08-30T09:30:09;21.40;93.70
9984;DHT22;16737;50.932;6.780;2023-08-30T09:32:40;21.40;93.60
9984;DHT22;16737;50.932;6.780;2023-08-30T09:35:09;21.40;93.50
9984;DHT22;16737;50.932;6.780;2023-08-30T09:37:36;21.40;93.60
9984;DHT22;16737;50.932;6.780;2023-08-30T09:40:04;21.40;93.50
9984;DHT22;16737;50.932;6.780;2023-08-30T09:42:33;21.40;93.60
9984;DHT22;16737;50.932;6.780;2023-08-30T09:45:00;21.50;93.60
9984;DHT22;16737;50.932;6.780;2023-08-30T09:47:29;21.50;93.70
9984;DHT22;16737;50.932;6.780;2023-08-30T09:49:58;21.50;93.60
9984;DHT22;16737;50.932;6.780;2023-08-30T09:52:30;21.50;93.40
9984;DHT22;16737;50.932;6.780;2023-08-30T09:54:58;21.60;93.40
9984;DHT22;16737;50.932;6.780;2023-08-30T09:57:26;21.60;93.30
9984;DHT22;16737;50.932;6.780;2023-08-30T09:59:55;21.60;93.30
9984;DHT22;16737;50.932;6.780;2023-08-30T10:02:25;21.60;93.60
9984;DHT22;16737;50.932;6.780;2023-08-30T10:04:54;21.60;93.30
9984;DHT22;16737;50.932;6.780;2023-08-30T10:07:22;21.60;93.20
9984;DHT22;16737;50.932;6.780;2023-08-30T10:09:51;21.60;93.20
9984;DHT22;16737;50.932;6.780;2023-08-30T10:12:20;21.60;93.20
9984;DHT22;16737;50.932;6.780;2023-08-30T10:14:48;21.60;93.20
9984;DHT22;16737;50.932;6.780;2023-08-30T10:17:18;21.60;93.30
9984;DHT22;16737;50.932;6.780;2023-08-30T10:19:49;21.60;93.10
9984;DHT22;16737;50.932;6.780;2023-08-30T10:22:19;21.60;93.20
9984;DHT22;16737;50.932;6.780;2023-08-30T10:24:51;21.60;93.10
9984;DHT22;16737;50.932;6.780;2023-08-30T10:27:24;21.60;93.20
9984;DHT22;16737;50.932;6.780;2023-08-30T10:29:53;21.60;93.10
9984;DHT22;16737;50.932;6.780;2023-08-30T10:32:22;21.60;93.20
9984;DHT22;16737;50.932;6.780;2023-08-30T10:34:50;21.60;93.30
9984;DHT22;16737;50.932;6.780;2023-08-30T10:37:23;21.60;93.40
9984;DHT22;16737;50.932;6.780;2023-08-30T10:39:53;21.60;93.10
9984;DHT22;16737;50.932;6.780;2023-08-30T10:42:26;21.60;93.20
9984;DHT22;16737;50.932;6.780;2023-08-30T10:44:57;21.70;93.20
9984;DHT22;16737;50.932;6.780;2023-08-30T10:47:28;21.60;93.10
9984;DHT22;16737;50.932;6.780;2023-08-30T10:49:57;21.60;93.20
9984;DHT22;16737;50.932;6.780;2023-08-30T10:52:27;21.60;93.20
9984;DHT22;16737;50.932;6.780;2023-08-30T10:55:05;21.50;93.00
9984;DHT22;16737;50.932;6.780;2023-08-30T10:57:33;21.40;93.30
9984;DHT22;16737;50.932;6.780;2023-08-30T11:00:08;21.20;93.00
9984;DHT22;16737;50.932;6.780;2023-08-30T11:02:36;21.00;93.20
9984;DHT22;16737;50.932;6.780;2023-08-30T11:05:06;20.80;93.00
9984;DHT22;16737;50.932;6.780;2023-08-30T11:07:36;20.70;93.20
9984;DHT22;16737;50.932;6.780;2023-08-30T11:10:04;20.50;93.30
9984;DHT22;16737;50.932;6.780;2023-08-30T11:12:32;20.30;93.40
9984;DHT22;16737;50.932;6.780;2023-08-30T11:14:59;20.20;93.50
9984;DHT22;16737;50.932;6.780;2023-08-30T11:17:26;20.00;93.50
9984;DHT22;16737;50.932;6.780;2023-08-30T11:19:58;19.90;93.70
9984;DHT22;16737;50.932;6.780;2023-08-30T11:22:32;19.80;94.00
9984;DHT22;16737;50.932;6.780;2023-08-30T11:25:00;19.60;93.90
9984;DHT22;16737;50.932;6.780;2023-08-30T11:27:29;19.50;94.20
9984;DHT22;16737;50.932;6.780;2023-08-30T11:29:59;19.40;94.30
9984;DHT22;16737;50.932;6.780;2023-08-30T11:32:26;19.30;94.60
9984;DHT22;16737;50.932;6.780;2023-08-30T11:34:57;19.30;94.60
9984;DHT22;16737;50.932;6.780;2023-08-30T11:37:26;19.30;94.90
9984;DHT22;16737;50.932;6.780;2023-08-30T11:39:54;19.20;94.90
9984;DHT22;16737;50.932;6.780;2023-08-30T11:42:24;19.20;95.00
9984;DHT22;16737;50.932;6.780;2023-08-30T11:44:52;19.10;95.20
9984;DHT22;16737;50.932;6.780;2023-08-30T11:47:19;19.20;95.30
9984;DHT22;16737;50.932;6.780;2023-08-30T11:49:48;19.10;95.20
9984;DHT22;16737;50.932;6.780;2023-08-30T11:52:16;19.10;95.30
9984;DHT22;16737;50.932;6.780;2023-08-30T11:54:46;19.10;95.40
9984;DHT22;16737;50.932;6.780;2023-08-30T11:57:14;19.00;95.50
9984;DHT22;16737;50.932;6.780;2023-08-30T11:59:43;19.00;95.50
9984;DHT22;16737;50.932;6.780;2023-08-30T12:02:12;19.00;95.70
9984;DHT22;16737;50.932;6.780;2023-08-30T12:04:41;19.00;95.90
9984;DHT22;16737;50.932;6.780;2023-08-30T12:07:09;19.00;95.90
9984;DHT22;16737;50.932;6.780;2023-08-30T12:09:36;19.00;96.00
9984;DHT22;16737;50.932;6.780;2023-08-30T12:12:09;19.00;96.20
9984;DHT22;16737;50.932;6.780;2023-08-30T12:14:37;19.00;96.50
9984;DHT22;16737;50.932;6.780;2023-08-30T12:17:06;19.00;96.30
9984;DHT22;16737;50.932;6.780;2023-08-30T12:19:37;19.00;96.40
9984;DHT22;16737;50.932;6.780;2023-08-30T12:22:06;19.00;96.70
9984;DHT22;16737;50.932;6.780;2023-08-30T12:24:41;19.00;96.30
9984;DHT22;16737;50.932;6.780;2023-08-30T12:27:09;19.10;96.70
9984;DHT22;16737;50.932;6.780;2023-08-30T12:29:36;19.00;96.20
9984;DHT22;16737;50.932;6.780;2023-08-30T12:32:06;19.00;96.20
9984;DHT22;16737;50.932;6.780;2023-08-30T12:34:33;19.00;96.30
9984;DHT22;16737;50.932;6.780;2023-08-30T12:37:00;19.00;96.50
9984;DHT22;16737;50.932;6.780;2023-08-30T12:39:28;19.00;96.50
9984;DHT22;16737;50.932;6.780;2023-08-30T12:41:55;18.90;96.90
9984;DHT22;16737;50.932;6.780;2023-08-30T12:44:23;18.90;96.60
9984;DHT22;16737;50.932;6.780;2023-08-30T12:46:49;18.90;96.60
9984;DHT22;16737;50.932;6.780;2023-08-30T12:49:18;18.90;96.70
9984;DHT22;16737;50.932;6.780;2023-08-30T12:51:45;18.90;96.80
9984;DHT22;16737;50.932;6.780;2023-08-30T12:54:12;18.90;96.80
9984;DHT22;16737;50.932;6.780;2023-08-30T12:56:39;18.90;96.80
9984;DHT22;16737;50.932;6.780;2023-08-30T12:59:06;18.90;96.90
9984;DHT22;16737;50.932;6.780;2023-08-30T13:01:33;18.80;96.90
9984;DHT22;16737;50.932;6.780;2023-08-30T13:04:00;18.90;97.10
9984;DHT22;16737;50.932;6.780;2023-08-30T13:06:28;18.90;97.10
9984;DHT22;16737;50.932;6.780;2023-08-30T13:08:57;18.90;97.20
9984;DHT22;16737;50.932;6.780;2023-08-30T13:11:26;18.90;97.20
9984;DHT22;16737;50.932;6.780;2023-08-30T13:13:58;18.90;97.20
9984;DHT22;16737;50.932;6.780;2023-08-30T13:16:25;18.90;97.20
9984;DHT22;16737;50.932;6.780;2023-08-30T13:18:53;18.90;97.30
9984;DHT22;16737;50.932;6.780;2023-08-30T13:21:20;18.90;97.30
9984;DHT22;16737;50.932;6.780;2023-08-30T13:23:49;18.90;97.40
9984;DHT22;16737;50.932;6.780;2023-08-30T13:26:16;18.90;97.40
9984;DHT22;16737;50.932;6.780;2023-08-30T13:28:43;18.90;97.40
9984;DHT22;16737;50.932;6.780;2023-08-30T13:31:09;18.90;97.40
9984;DHT22;16737;50.932;6.780;2023-08-30T13:33:36;18.90;97.80
9984;DHT22;16737;50.932;6.780;2023-08-30T13:36:04;18.90;97.50
9984;DHT22;16737;50.932;6.780;2023-08-30T13:38:31;18.90;97.60
9984;DHT22;16737;50.932;6.780;2023-08-30T13:41:00;19.00;97.60
9984;DHT22;16737;50.932;6.780;2023-08-30T13:43:29;18.90;97.60
9984;DHT22;16737;50.932;6.780;2023-08-30T13:46:00;19.00;97.60
9984;DHT22;16737;50.932;6.780;2023-08-30T13:48:27;19.00;97.90
9984;DHT22;16737;50.932;6.780;2023-08-30T13:50:55;19.00;97.70
9984;DHT22;16737;50.932;6.780;2023-08-30T13:53:22;19.00;97.70
9984;DHT22;16737;50.932;6.780;2023-08-30T13:55:50;19.00;97.60
9984;DHT22;16737;50.932;6.780;2023-08-30T13:58:18;19.00;97.60
9984;DHT22;16737;50.932;6.780;2023-08-30T14:00:46;19.00;97.70
9984;DHT22;16737;50.932;6.780;2023-08-30T14:03:13;19.00;97.70
9984;DHT22;16737;50.932;6.780;2023-08-30T14:05:40;19.00;97.70
9984;DHT22;16737;50.932;6.780;2023-08-30T14:08:07;18.90;97.60
9984;DHT22;16737;50.932;6.780;2023-08-30T14:10:34;18.90;97.50
9984;DHT22;16737;50.932;6.780;2023-08-30T14:13:02;18.80;97.50
9984;DHT22;16737;50.932;6.780;2023-08-30T14:15:30;18.90;97.60
9984;DHT22;16737;50.932;6.780;2023-08-30T14:17:57;18.90;97.80
9984;DHT22;16737;50.932;6.780;2023-08-30T14:20:24;18.80;97.70
9984;DHT22;16737;50.932;6.780;2023-08-30T14:22:51;18.80;97.70
9984;DHT22;16737;50.932;6.780;2023-08-30T14:25:19;18.80;97.70
9984;DHT22;16737;50.932;6.780;2023-08-30T14:27:46;18.70;97.60
9984;DHT22;16737;50.932;6.780;2023-08-30T14:30:13;18.70;97.60
9984;DHT22;16737;50.932;6.780;2023-08-30T14:32:43;18.70;97.50
9984;DHT22;16737;50.932;6.780;2023-08-30T14:35:10;18.60;97.60
9984;DHT22;16737;50.932;6.780;2023-08-30T14:37:37;18.60;97.90
9984;DHT22;16737;50.932;6.780;2023-08-30T14:40:06;18.50;97.60
9984;DHT22;16737;50.932;6.780;2023-08-30T14:42:34;18.50;97.50
9984;DHT22;16737;50.932;6.780;2023-08-30T14:45:01;18.50;97.50
9984;DHT22;16737;50.932;6.780;2023-08-30T14:47:29;18.50;97.40
9984;DHT22;16737;50.932;6.780;2023-08-30T14:49:58;18.40;97.40
9984;DHT22;16737;50.932;6.780;2023-08-30T14:52:26;18.30;97.50
9984;DHT22;16737;50.932;6.780;2023-08-30T14:54:54;18.30;97.50
9984;DHT22;16737;50.932;6.780;2023-08-30T14:57:21;18.20;97.70
9984;DHT22;16737;50.932;6.780;2023-08-30T14:59:50;18.20;97.70
9984;DHT22;16737;50.932;6.780;2023-08-30T15:02:17;18.20;97.80
9984;DHT22;16737;50.932;6.780;2023-08-30T15:04:44;18.20;97.90
9984;DHT22;16737;50.932;6.780;2023-08-30T15:07:13;18.20;98.10
9984;DHT22;16737;50.932;6.780;2023-08-30T15:09:40;18.20;98.30
9984;DHT22;16737;50.932;6.780;2023-08-30T15:12:07;18.30;98.40
9984;DHT22;16737;50.932;6.780;2023-08-30T15:14:34;18.30;98.40
9984;DHT22;16737;50.932;6.780;2023-08-30T15:17:01;18.50;98.50
9984;DHT22;16737;50.932;6.780;2023-08-30T15:19:29;18.40;98.60
9984;DHT22;16737;50.932;6.780;2023-08-30T15:21:56;18.50;98.60
9984;DHT22;16737;50.932;6.780;2023-08-30T15:24:24;18.50;98.70
9984;DHT22;16737;50.932;6.780;2023-08-30T15:26:51;18.60;98.90
9984;DHT22;16737;50.932;6.780;2023-08-30T15:29:18;18.70;98.90
9984;DHT22;16737;50.932;6.780;2023-08-30T15:31:46;18.70;99.30
9984;DHT22;16737;50.932;6.780;2023-08-30T15:34:17;18.80;99.10
9984;DHT22;16737;50.932;6.780;2023-08-30T15:36:44;18.90;99.30
9984;DHT22;16737;50.932;6.780;2023-08-30T15:39:13;19.00;99.20
9984;DHT22;16737;50.932;6.780;2023-08-30T15:41:43;19.00;99.20
9984;DHT22;16737;50.932;6.780;2023-08-30T15:44:12;19.10;99.30
9984;DHT22;16737;50.932;6.780;2023-08-30T15:46:39;19.20;99.30
9984;DHT22;16737;50.932;6.780;2023-08-30T15:49:07;19.30;99.40
9984;DHT22;16737;50.932;6.780;2023-08-30T15:51:34;19.40;99.50
9984;DHT22;16737;50.932;6.780;2023-08-30T15:54:01;19.40;99.40